createdAt,value
2023-04-15T00:00:01.600Z,22.7
2023-04-15T00:05:01.449Z,22.7
2023-04-15T00:10:02.328Z,22.7
2023-04-15T00:15:00.264Z,22.6
2023-04-15T00:20:01.352Z,22.6
2023-04-15T00:25:01.055Z,22.7
2023-04-15T00:30:00.877Z,22.6
2023-04-15T00:35:00.863Z,22.6
2023-04-15T00:40:01.062Z,22.5
2023-04-15T00:45:02.458Z,22.5
2023-04-15T00:50:01.402Z,22.5
2023-04-15T00:55:01.857Z,22.5
2023-04-15T01:00:01.092Z,22.5
2023-04-15T01:05:00.848Z,22.5
2023-04-15T01:10:00.838Z,22.5
2023-04-15T01:15:00.798Z,22.5
2023-04-15T01:20:01.869Z,22.5
2023-04-15T01:25:01.417Z,22.5
2023-04-15T01:30:02.255Z,22.5
2023-04-15T01:35:00.782Z,22.5
2023-04-15T01:40:00.780Z,22.4
2023-04-15T01:45:01.961Z,22.3
2023-04-15T01:50:01.037Z,22.4
2023-04-15T01:55:01.516Z,22.3
2023-04-15T02:00:01.328Z,22.3
2023-04-15T02:05:03.798Z,22.3
2023-04-15T02:10:01.362Z,22.3
2023-04-15T02:15:01.041Z,22.2
2023-04-15T02:20:02.031Z,22.2
2023-04-15T02:25:01.332Z,22.2
2023-04-15T02:30:01.466Z,22.2
2023-04-15T02:35:00.835Z,22.2
2023-04-15T02:40:01.513Z,22.2
2023-04-15T02:45:00.876Z,22.2
2023-04-15T02:50:01.298Z,22.1
2023-04-15T02:55:01.554Z,22.1
2023-04-15T03:00:01.300Z,22.1
2023-04-15T03:05:01.015Z,22.1
2023-04-15T03:10:01.050Z,22.1
2023-04-15T03:15:01.882Z,22.1
2023-04-15T03:20:00.911Z,22.0
2023-04-15T03:25:00.837Z,22.0
2023-04-15T03:30:03.662Z,22.1
2023-04-15T03:35:00.790Z,22.0
2023-04-15T03:40:01.797Z,22.0
2023-04-15T03:45:00.859Z,22.0
2023-04-15T03:50:00.989Z,22.0
2023-04-15T03:55:01.044Z,22.0
2023-04-15T04:00:00.838Z,22.0
2023-04-15T04:05:01.284Z,22.0
2023-04-15T04:10:01.057Z,22.0
2023-04-15T04:15:00.798Z,22.0
2023-04-15T04:20:01.263Z,22.0
2023-04-15T04:25:00.823Z,22.0
2023-04-15T04:30:00.781Z,22.0
2023-04-15T04:35:01.477Z,22.0
2023-04-15T04:40:01.272Z,22.0
2023-04-15T04:45:01.290Z,22.0
2023-04-15T04:50:01.001Z,22.0
2023-04-15T04:55:01.601Z,22.0
2023-04-15T05:00:00.903Z,22.0
2023-04-15T05:05:01.711Z,22.0
2023-04-15T05:10:00.878Z,22.0
2023-04-15T05:15:01.247Z,22.0
2023-04-15T05:20:00.887Z,22.0
2023-04-15T05:25:01.352Z,22.0
2023-04-15T05:30:01.105Z,22.0
2023-04-15T05:35:00.854Z,22.0
2023-04-15T05:40:02.811Z,22.0
2023-04-15T05:45:00.815Z,22.0
2023-04-15T05:50:00.767Z,21.9
2023-04-15T05:55:01.345Z,21.9
2023-04-15T06:00:01.238Z,21.9
2023-04-15T06:05:00.826Z,21.9
2023-04-15T06:10:00.809Z,22.0
2023-04-15T06:15:01.225Z,21.9
2023-04-15T06:20:01.623Z,22.0
2023-04-15T06:25:00.870Z,21.9
2023-04-15T06:30:02.400Z,22.0
2023-04-15T06:35:00.736Z,22.0
2023-04-15T06:40:03.782Z,22.0
2023-04-15T06:45:00.822Z,22.0
2023-04-15T06:50:00.845Z,22.0
2023-04-15T06:55:00.787Z,22.0
2023-04-15T07:00:01.273Z,22.0
2023-04-15T07:05:01.049Z,22.0
2023-04-15T07:10:00.801Z,22.0
2023-04-15T07:15:00.832Z,22.0
2023-04-15T07:20:00.871Z,22.0
2023-04-15T07:25:01.218Z,22.0
2023-04-15T07:30:01.251Z,22.0
2023-04-15T07:35:01.269Z,22.0
2023-04-15T07:40:01.101Z,22.1
2023-04-15T07:45:03.579Z,22.1
2023-04-15T07:50:00.907Z,22.1
2023-04-15T07:55:00.792Z,22.1
2023-04-15T08:00:00.940Z,22.1
2023-04-15T08:05:01.067Z,22.1
2023-04-15T08:10:00.859Z,22.1
2023-04-15T08:15:01.084Z,22.0
2023-04-15T08:20:00.853Z,22.0
2023-04-15T08:25:01.924Z,22.1
2023-04-15T08:30:04.934Z,22.1
2023-04-15T08:35:00.896Z,22.1
2023-04-15T08:40:01.081Z,22.1
2023-04-15T08:45:01.348Z,22.1
2023-04-15T08:50:01.088Z,22.1
2023-04-15T08:55:00.849Z,22.1
2023-04-15T09:00:01.393Z,22.1
2023-04-15T09:05:00.841Z,22.1
2023-04-15T09:10:00.808Z,22.0
2023-04-15T09:15:01.224Z,22.1
2023-04-15T09:20:00.921Z,22.0
2023-04-15T09:25:01.033Z,22.1
2023-04-15T09:30:02.139Z,22.1
2023-04-15T09:35:00.797Z,22.1
2023-04-15T09:40:02.036Z,22.1
2023-04-15T09:45:00.804Z,22.1
2023-04-15T09:50:01.463Z,22.1
2023-04-15T09:55:00.991Z,22.1
2023-04-15T10:00:01.967Z,22.1
2023-04-15T10:05:01.926Z,22.1
2023-04-15T10:10:01.526Z,22.2
2023-04-15T10:15:03.538Z,22.1
2023-04-15T10:20:01.165Z,22.1
2023-04-15T10:25:01.482Z,22.1
2023-04-15T10:30:01.076Z,22.2
2023-04-15T10:35:01.123Z,22.2
2023-04-15T10:40:01.276Z,22.2
2023-04-15T10:45:01.010Z,22.2
2023-04-15T10:50:01.480Z,22.2
2023-04-15T10:55:01.002Z,22.2
2023-04-15T11:00:01.512Z,22.2
2023-04-15T11:05:01.199Z,22.2
2023-04-15T11:10:01.238Z,22.2
2023-04-15T11:15:03.485Z,22.3
2023-04-15T11:20:01.957Z,22.2
2023-04-15T11:25:01.056Z,22.2
2023-04-15T11:30:01.005Z,22.2
2023-04-15T11:35:01.293Z,22.2
2023-04-15T11:40:01.060Z,22.3
2023-04-15T11:45:00.729Z,22.3
2023-04-15T11:50:02.314Z,22.3
2023-04-15T11:55:00.836Z,22.3
2023-04-15T12:00:01.290Z,22.3
2023-04-15T12:05:01.130Z,22.3
2023-04-15T12:10:01.020Z,22.3
2023-04-15T12:15:00.815Z,22.2
2023-04-15T12:20:01.243Z,22.3
2023-04-15T12:25:00.263Z,22.3
2023-04-15T12:30:01.012Z,22.3
2023-04-15T12:35:00.819Z,22.3
2023-04-15T12:40:01.017Z,22.3
2023-04-15T12:45:00.810Z,22.3
2023-04-15T12:50:00.889Z,22.3
2023-04-15T12:55:01.367Z,22.2
2023-04-15T13:00:01.095Z,22.3
2023-04-15T13:05:01.063Z,22.3
2023-04-15T13:10:00.993Z,22.2
2023-04-15T13:15:01.103Z,22.3
2023-04-15T13:20:01.392Z,22.3
2023-04-15T13:25:00.879Z,22.3
2023-04-15T13:30:02.945Z,22.3
2023-04-15T13:35:01.299Z,22.3
2023-04-15T13:40:03.293Z,22.4
2023-04-15T13:45:00.802Z,22.3
2023-04-15T13:50:01.374Z,22.4
2023-04-15T13:55:07.389Z,22.4
2023-04-15T14:00:00.870Z,22.4
2023-04-15T14:05:01.281Z,22.4
2023-04-15T14:10:01.250Z,22.3
2023-04-15T14:15:01.046Z,22.4
2023-04-15T14:20:01.575Z,22.4
2023-04-15T14:25:01.042Z,22.4
2023-04-15T14:30:00.801Z,22.4
2023-04-15T14:35:00.816Z,22.4
2023-04-15T14:40:00.823Z,22.4
2023-04-15T14:45:01.204Z,22.4
2023-04-15T14:50:00.825Z,22.4
2023-04-15T14:55:00.893Z,22.4
2023-04-15T15:00:01.010Z,22.4
2023-04-15T15:05:01.305Z,22.4
2023-04-15T15:10:01.313Z,22.4
2023-04-15T15:15:04.841Z,22.4
2023-04-15T15:20:01.334Z,22.5
2023-04-15T15:25:01.288Z,22.4
2023-04-15T15:30:02.882Z,22.5
2023-04-15T15:35:01.318Z,22.5
2023-04-15T15:40:01.735Z,22.5
2023-04-15T15:45:00.831Z,22.5
2023-04-15T15:50:00.821Z,22.5
2023-04-15T15:55:01.049Z,22.5
2023-04-15T16:00:10.979Z,22.5
2023-04-15T16:05:00.287Z,22.5
2023-04-15T16:10:01.453Z,22.5
2023-04-15T16:15:01.134Z,22.5
2023-04-15T16:20:01.603Z,22.5
2023-04-15T16:25:01.040Z,22.5
2023-04-15T16:30:01.274Z,22.5
2023-04-15T16:35:01.035Z,22.5
2023-04-15T16:40:01.038Z,22.5
2023-04-15T16:45:01.098Z,22.6
2023-04-15T16:50:00.885Z,22.5
2023-04-15T16:55:00.850Z,22.6
2023-04-15T17:00:00.933Z,22.5
2023-04-15T17:05:00.849Z,22.5
2023-04-15T17:10:01.030Z,22.5
2023-04-15T17:15:00.891Z,22.5
2023-04-15T17:20:02.360Z,22.5
2023-04-15T17:25:01.230Z,22.5
2023-04-15T17:30:00.998Z,22.5
2023-04-15T17:35:03.277Z,22.5
2023-04-15T17:40:05.985Z,22.5
2023-04-15T17:45:01.287Z,22.5
2023-04-15T17:50:00.852Z,22.5
2023-04-15T17:55:01.670Z,22.5
2023-04-15T18:00:00.908Z,22.5
2023-04-15T18:05:01.338Z,22.5
2023-04-15T18:10:01.148Z,22.5
2023-04-15T18:15:00.285Z,22.5
2023-04-15T18:20:02.176Z,22.5
2023-04-15T18:25:01.291Z,22.5
2023-04-15T18:30:01.516Z,22.5
2023-04-15T18:35:00.889Z,22.5
2023-04-15T18:40:00.799Z,22.5
2023-04-15T18:45:01.256Z,22.5
2023-04-15T18:50:03.000Z,22.4
2023-04-15T18:55:01.304Z,22.5
2023-04-15T19:00:02.000Z,22.4
2023-04-15T19:05:01.696Z,22.4
2023-04-15T19:15:00.930Z,22.5
2023-04-15T19:20:01.533Z,22.5
2023-04-15T19:25:01.489Z,22.5
2023-04-15T19:30:01.375Z,22.5
2023-04-15T19:35:00.846Z,22.5
2023-04-15T19:40:00.861Z,22.5
2023-04-15T19:45:00.827Z,22.5
2023-04-15T19:50:02.369Z,22.4
2023-04-15T19:55:01.185Z,22.4
2023-04-15T20:00:01.999Z,22.4
2023-04-15T20:05:01.034Z,22.4
2023-04-15T20:10:01.094Z,22.4
2023-04-15T20:15:01.586Z,22.4
2023-04-15T20:20:01.602Z,22.4
2023-04-15T20:25:01.600Z,22.4
2023-04-15T20:30:01.134Z,22.4
2023-04-15T20:35:01.594Z,22.4
2023-04-15T20:40:01.075Z,22.4
2023-04-15T20:45:01.512Z,22.4
2023-04-15T20:50:01.301Z,22.4
2023-04-15T20:55:01.107Z,22.4
2023-04-15T21:00:02.246Z,22.4
2023-04-15T21:05:01.106Z,22.3
2023-04-15T21:10:01.275Z,22.4
2023-04-15T21:15:00.875Z,22.3
2023-04-15T21:20:00.872Z,22.4
2023-04-15T21:25:00.936Z,22.3
2023-04-15T21:30:01.375Z,22.3
2023-04-15T21:35:02.203Z,22.3
2023-04-15T21:40:01.979Z,22.3
2023-04-15T21:45:02.556Z,22.3
2023-04-15T21:50:00.865Z,22.2
2023-04-15T21:55:01.575Z,22.2
2023-04-15T22:00:01.393Z,22.2
2023-04-15T22:05:01.557Z,22.2
2023-04-15T22:10:02.583Z,22.2
2023-04-15T22:15:01.535Z,22.2
2023-04-15T22:20:01.013Z,22.2
2023-04-15T22:25:00.989Z,22.2
2023-04-15T22:30:01.032Z,22.2
2023-04-15T22:35:01.300Z,22.2
2023-04-15T22:40:01.094Z,22.2
2023-04-15T22:45:01.025Z,22.1
2023-04-15T22:55:00.860Z,22.2
2023-04-15T23:00:03.259Z,22.2
2023-04-15T23:05:00.883Z,22.2
2023-04-15T23:10:01.249Z,22.2
2023-04-15T23:15:01.725Z,22.2
2023-04-15T23:20:01.582Z,22.2
2023-04-15T23:25:01.540Z,22.2
2023-04-15T23:30:00.795Z,22.2
2023-04-15T23:35:01.031Z,22.2
2023-04-15T23:40:01.965Z,22.3
2023-04-15T23:45:00.842Z,22.3
2023-04-15T23:50:01.935Z,22.3
2023-04-15T23:55:01.555Z,22.3
